Time;durP1;ratioP1;P1;durP2;ratioP2;P2;SDS_P1;SDS_P2;PMS_P1;PMS_P2;Temp;Humidity;BMP_temperature;BMP_pressure;BME280_temperature;BME280_humidity;BME280_pressure;Samples;Min_cycle;Max_cycle;Signal;HPM_P1;HPM_P2
2022/11/10 00:00:57;;;;;;;4.97;3.00;;;;;;;11.63;94.69;98410.69;4968360;28;20118;-83
2022/11/10 00:03:27;;;;;;;4.13;2.67;;;;;;;11.62;94.67;98416.97;4968306;28;20418;-83
2022/11/10 00:05:53;;;;;;;3.22;2.92;;;;;;;11.51;94.83;98411.28;4967899;28;20030;-83
2022/11/10 00:08:18;;;;;;;5.93;3.05;;;;;;;11.51;94.99;98415.72;4967504;28;20039;-84
2022/11/10 00:10:56;;;;;;;4.15;2.95;;;;;;;11.48;95.12;98418.75;4972095;28;20030;-83
2022/11/10 00:13:32;;;;;;;4.78;2.92;;;;;;;11.45;95.30;98432.25;4972398;28;20061;-84
2022/11/10 00:18:45;;;;;;;3.67;3.00;;;;;;;11.38;95.40;98436.69;4973005;28;20062;-83
2022/11/10 00:21:13;;;;;;;3.75;2.75;;;;;;;11.36;95.63;98429.00;4972289;28;20034;-83
2022/11/10 00:23:40;;;;;;;6.10;3.10;;;;;;;11.33;95.51;98423.31;4972713;28;20419;-83
2022/11/10 00:26:17;;;;;;;4.82;2.90;;;;;;;11.32;95.26;98419.88;4972254;28;20033;-83
2022/11/10 00:28:43;;;;;;;5.60;3.20;;;;;;;11.39;95.40;98430.41;4972138;28;20089;-83
2022/11/10 00:31:10;;;;;;;4.75;3.10;;;;;;;11.39;95.17;98435.66;4971060;28;20523;-83
2022/11/10 00:33:38;;;;;;;3.70;3.03;;;;;;;11.34;94.72;98433.66;4971737;28;20041;-83
2022/11/10 00:36:05;;;;;;;6.05;3.10;;;;;;;11.33;94.89;98439.88;4972310;28;20097;-83
2022/11/10 00:38:31;;;;;;;3.88;2.90;;;;;;;11.26;94.76;98437.22;4972245;28;20142;-83
2022/11/10 00:41:01;;;;;;;5.15;3.42;;;;;;;11.26;95.04;98437.22;4972367;28;20109;-84
2022/11/10 00:43:29;;;;;;;5.13;3.03;;;;;;;11.24;95.20;98443.69;4971907;28;20045;-84
2022/11/10 00:45:55;;;;;;;9.80;3.50;;;;;;;11.24;94.92;98454.19;4972327;28;20047;-84
2022/11/10 00:48:21;;;;;;;4.78;3.25;;;;;;;11.17;95.36;98459.44;4971885;28;20395;-84
2022/11/10 00:50:46;;;;;;;5.85;3.60;;;;;;;11.14;95.30;98469.50;4971983;28;20102;-83
2022/11/10 00:53:12;;;;;;;4.85;3.22;;;;;;;11.14;95.01;98469.50;4969111;28;20038;-83
2022/11/10 00:55:40;;;;;;;6.20;3.33;;;;;;;11.15;95.29;98471.91;4971991;28;20035;-84
2022/11/10 00:58:05;;;;;;;5.47;3.40;;;;;;;11.13;95.22;98473.13;4971768;28;20395;-84
2022/11/10 01:00:32;;;;;;;6.55;3.38;;;;;;;11.12;95.00;98468.88;4969849;28;20039;-84
2022/11/10 01:02:57;;;;;;;6.50;3.50;;;;;;;11.14;94.72;98469.50;4971404;28;20090;-84
2022/11/10 01:05:22;;;;;;;4.75;3.25;;;;;;;11.16;94.33;98475.38;4971616;28;20043;-84
2022/11/10 01:07:48;;;;;;;7.65;3.70;;;;;;;11.13;94.00;98473.13;4971593;28;20031;-84
2022/11/10 01:10:14;;;;;;;9.38;3.72;;;;;;;11.10;94.07;98474.34;4971706;28;20046;-84
2022/11/10 01:12:39;;;;;;;5.07;3.35;;;;;;;11.10;93.87;98484.03;4970866;28;20113;-84
2022/11/10 01:15:06;;;;;;;5.57;3.45;;;;;;;11.02;94.65;98489.41;4971429;28;20034;-84
2022/11/10 01:17:32;;;;;;;4.75;3.47;;;;;;;10.98;94.63;98487.19;4971826;28;20050;-84
2022/11/10 01:19:57;;;;;;;5.05;3.13;;;;;;;10.99;94.07;98494.06;4971354;28;20027;-84
2022/11/10 01:22:23;;;;;;;7.07;3.45;;;;;;;10.92;94.16;98487.94;4971559;28;20663;-84
2022/11/10 01:24:48;;;;;;;5.40;3.33;;;;;;;10.91;94.03;98491.56;4970229;28;20045;-84
2022/11/10 01:27:14;;;;;;;3.92;3.22;;;;;;;10.88;93.90;98486.72;4971456;28;20081;-84
2022/11/10 01:29:39;;;;;;;4.55;3.53;;;;;;;10.80;94.23;98510.47;4972030;28;20177;-83
2022/11/10 01:32:05;;;;;;;6.32;3.58;;;;;;;10.75;94.96;98502.38;4972806;28;20084;-83
2022/11/10 01:34:30;;;;;;;6.20;3.30;;;;;;;10.72;94.93;98502.72;4972883;28;20039;-82
2022/11/10 01:36:56;;;;;;;4.70;3.58;;;;;;;10.68;95.00;98512.81;4971317;28;20035;-83
2022/11/10 01:39:21;;;;;;;3.63;3.15;;;;;;;10.68;95.01;98512.81;4970882;28;20085;-84
2022/11/10 01:41:47;;;;;;;7.80;3.80;;;;;;;10.68;95.08;98509.38;4971270;28;20066;-84
2022/11/10 01:44:20;;;;;;;5.85;3.65;;;;;;;10.66;95.36;98513.97;4971163;28;20046;-83
2022/11/10 01:46:45;;;;;;;7.07;4.03;;;;;;;10.60;95.38;98509.50;4971133;28;20067;-84
2022/11/10 01:49:16;;;;;;;6.20;3.78;;;;;;;10.62;95.50;98513.56;4970752;28;20129;-84
2022/11/10 01:51:49;;;;;;;6.78;3.90;;;;;;;10.58;95.44;98517.56;4970799;28;20039;-84
2022/11/10 01:54:24;;;;;;;5.00;4.18;;;;;;;10.52;95.62;98512.25;4968378;28;20557;-84
2022/11/10 01:56:54;;;;;;;5.95;4.00;;;;;;;10.48;95.59;98522.31;4968019;28;20039;-84
2022/11/10 01:59:27;;;;;;;5.07;3.88;;;;;;;10.46;96.01;98537.44;4969291;28;20404;-84
2022/11/10 02:02:04;;;;;;;7.65;4.20;;;;;;;10.48;95.88;98545.09;4969326;28;20467;-84
2022/11/10 02:04:30;;;;;;;7.57;3.90;;;;;;;10.44;95.63;98545.50;4969543;28;20126;-83
2022/11/10 02:06:55;;;;;;;6.85;3.60;;;;;;;10.44;95.29;98545.50;4970282;28;20562;-84
2022/11/10 02:09:21;;;;;;;5.05;3.42;;;;;;;10.43;94.98;98551.75;4970235;28;20034;-83
2022/11/10 02:11:53;;;;;;;4.70;3.60;;;;;;;10.32;94.75;98544.38;4970500;28;20558;-84
2022/11/10 02:14:19;;;;;;;6.10;4.28;;;;;;;10.27;95.65;98557.22;4968891;28;20093;-84
2022/11/10 02:16:45;;;;;;;6.70;3.90;;;;;;;10.27;96.21;98557.22;4970875;28;20452;-83
2022/11/10 02:19:14;;;;;;;6.07;3.95;;;;;;;10.24;96.18;98552.31;4969056;28;20039;-83
2022/11/10 02:21:40;;;;;;;7.80;3.80;;;;;;;10.23;96.32;98545.47;4968996;28;20038;-83
2022/11/10 02:24:07;;;;;;;7.10;4.20;;;;;;;10.25;96.27;98553.94;4969963;28;20049;-83
2022/11/10 02:26:37;;;;;;;7.35;4.38;;;;;;;10.23;96.13;98555.94;4970224;28;20559;-84
2022/11/10 02:29:02;;;;;;;5.68;4.63;;;;;;;10.14;96.49;98554.44;4969820;28;20038;-84
2022/11/10 02:31:28;;;;;;;6.82;4.13;;;;;;;10.14;96.70;98565.72;4970212;28;20039;-83
2022/11/10 02:33:54;;;;;;;5.28;3.90;;;;;;;10.09;96.94;98568.09;4969232;28;20104;-84
2022/11/10 02:36:19;;;;;;;6.78;4.38;;;;;;;10.06;97.00;98573.69;4969898;28;20106;-83
2022/11/10 02:38:44;;;;;;;8.52;4.47;;;;;;;10.04;97.12;98569.63;4970091;28;20027;-83
2022/11/10 02:41:10;;;;;;;8.82;4.63;;;;;;;9.99;97.38;98571.97;4969527;28;20142;-83
2022/11/10 02:43:37;;;;;;;9.35;4.50;;;;;;;9.98;96.93;98581.66;4969887;28;20138;-83
2022/11/10 02:46:03;;;;;;;9.50;4.28;;;;;;;9.97;96.50;98584.47;4969348;28;20037;-83
2022/11/10 02:48:28;;;;;;;8.07;4.72;;;;;;;9.96;96.41;98575.00;4970014;28;20042;-83
2022/11/10 02:50:54;;;;;;;6.78;4.18;;;;;;;9.88;96.81;98584.56;4969315;28;20042;-83
2022/11/10 02:53:19;;;;;;;7.53;4.40;;;;;;;9.89;96.77;98575.69;4966965;28;20046;-83
2022/11/10 02:55:45;;;;;;;6.30;4.65;;;;;;;9.81;97.07;98588.91;4970137;28;20166;-83
2022/11/10 02:58:11;;;;;;;8.38;4.43;;;;;;;9.80;96.32;98589.91;4969739;28;20109;-83
2022/11/10 03:00:36;;;;;;;8.00;4.28;;;;;;;9.80;96.21;98592.53;4968735;28;20712;-83
2022/11/10 03:03:02;;;;;;;7.45;4.40;;;;;;;9.72;97.03;98595.25;4968870;28;20110;-83
2022/11/10 03:05:29;;;;;;;5.72;4.32;;;;;;;9.68;97.10;98604.44;4969938;28;20030;-83
2022/11/10 03:07:58;;;;;;;9.02;4.70;;;;;;;9.70;97.07;98602.44;4969867;28;20548;-82
2022/11/10 03:10:25;;;;;;;7.65;4.53;;;;;;;9.64;97.68;98603.19;4969346;28;20414;-84
2022/11/10 03:13:00;;;;;;;7.55;4.63;;;;;;;9.68;97.54;98604.44;4969778;28;20034;-84
2022/11/10 03:15:27;;;;;;;8.70;4.43;;;;;;;9.65;97.66;98610.03;4969514;28;20497;-83
2022/11/10 03:17:53;;;;;;;7.28;4.63;;;;;;;9.63;97.88;98610.22;4968034;28;20054;-83
2022/11/10 03:20:19;;;;;;;10.30;4.85;;;;;;;9.59;98.44;98610.75;4969520;28;20049;-84
2022/11/10 03:22:44;;;;;;;10.20;6.13;;;;;;;9.61;98.35;98614.84;4969883;28;20046;-83
2022/11/10 03:25:11;;;;;;;9.55;6.03;;;;;;;9.63;98.03;98614.66;4969711;28;20123;-83
2022/11/10 03:27:37;;;;;;;8.35;5.82;;;;;;;9.61;97.56;98627.13;4969939;28;20042;-83
2022/11/10 03:30:06;;;;;;;7.32;5.03;;;;;;;9.57;97.66;98628.47;4969125;28;20057;-83
2022/11/10 03:32:32;;;;;;;9.65;4.72;;;;;;;9.56;98.09;98632.09;4968146;28;20039;-83
2022/11/10 03:34:57;;;;;;;7.40;4.97;;;;;;;9.56;96.95;98637.31;4969164;28;20026;-83
2022/11/10 03:37:23;;;;;;;6.43;4.03;;;;;;;9.60;97.04;98638.59;4969690;28;20045;-83
2022/11/10 03:39:49;;;;;;;10.25;5.22;;;;;;;9.56;97.24;98637.31;4969011;28;20039;-83
2022/11/10 03:42:14;;;;;;;7.05;4.55;;;;;;;9.60;96.92;98641.22;4970077;28;20042;-83
2022/11/10 03:44:40;;;;;;;7.63;4.63;;;;;;;9.59;96.58;98643.00;4970972;28;20034;-83
2022/11/10 03:47:05;;;;;;;9.15;5.05;;;;;;;9.58;96.58;98645.81;4973186;28;20114;-82
2022/11/10 03:49:31;;;;;;;7.10;4.78;;;;;;;9.58;96.58;98645.81;4973184;28;20042;-83
2022/11/10 03:51:56;;;;;;;6.82;4.70;;;;;;;9.50;96.04;98644.09;4973356;28;20069;-83
2022/11/10 03:54:22;;;;;;;6.75;4.22;;;;;;;9.47;96.17;98654.09;4970287;28;20042;-83
2022/11/10 03:56:47;;;;;;;9.32;4.97;;;;;;;9.47;97.04;98656.72;4972955;28;20104;-83
2022/11/10 03:59:13;;;;;;;8.07;4.63;;;;;;;9.52;96.66;98657.00;4973518;28;20045;-83
2022/11/10 04:01:38;;;;;;;8.75;5.18;;;;;;;9.57;96.02;98671.19;4972381;28;20042;-83
2022/11/10 04:04:04;;;;;;;10.43;4.88;;;;;;;9.56;95.17;98679.22;4972543;28;20038;-83
2022/11/10 04:09:14;;;;;;;8.20;4.70;;;;;;;9.55;95.44;98672.38;4972229;28;20364;-83
2022/11/10 04:17:08;;;;;;;9.00;4.95;;;;;;;9.45;95.11;98690.13;4972884;28;20041;-83
2022/11/10 04:19:34;;;;;;;9.88;5.28;;;;;;;9.42;95.89;98698.34;4972627;28;20113;-83
2022/11/10 04:21:59;;;;;;;12.35;5.13;;;;;;;9.39;96.69;98700.31;4972930;28;20035;-83
2022/11/10 04:24:25;;;;;;;9.90;5.35;;;;;;;9.43;96.38;98702.59;4972643;28;20498;-83
2022/11/10 04:26:50;;;;;;;9.60;5.05;;;;;;;9.46;96.13;98704.84;4972095;28;20298;-84
2022/11/10 04:29:18;;;;;;;6.75;4.80;;;;;;;9.48;95.83;98698.44;4987812;28;20034;-83
2022/11/10 04:31:44;;;;;;;9.77;4.97;;;;;;;9.43;95.64;98692.13;4972445;28;20039;-83
2022/11/10 04:34:13;;;;;;;8.07;5.38;;;;;;;9.43;95.58;98705.22;4972335;28;20049;-83
2022/11/10 04:36:42;;;;;;;8.88;4.75;;;;;;;9.42;95.61;98700.97;4973775;28;20097;-87
2022/11/10 04:39:08;;;;;;;9.13;5.03;;;;;;;9.43;94.93;98715.69;4980278;28;20449;-87
2022/11/10 04:41:35;;;;;;;8.82;5.25;;;;;;;9.38;95.64;98717.00;4972943;28;20487;-87
2022/11/10 04:44:01;;;;;;;10.27;5.00;;;;;;;9.37;95.13;98715.38;4971996;28;20031;-87
2022/11/10 04:46:33;;;;;;;9.35;5.20;;;;;;;9.39;95.49;98716.03;4974153;28;20105;-87
2022/11/10 04:49:00;;;;;;;7.35;5.13;;;;;;;9.47;94.88;98719.56;4975248;28;20057;-87
2022/11/10 04:51:35;;;;;;;8.07;4.55;;;;;;;9.46;94.87;98725.78;4972871;28;20053;-87
2022/11/10 04:54:02;;;;;;;8.20;4.85;;;;;;;9.48;94.43;98729.06;4968741;28;20033;-87
2022/11/10 04:56:28;;;;;;;7.68;4.35;;;;;;;9.50;93.64;98727.06;4971616;28;20113;-87
2022/11/10 04:58:54;;;;;;;7.25;4.50;;;;;;;9.45;92.05;98716.31;4972586;28;20038;-87
2022/11/10 05:01:24;;;;;;;6.07;4.43;;;;;;;9.47;91.53;98738.69;4972536;28;20434;-86
2022/11/10 05:03:50;;;;;;;10.30;4.90;;;;;;;9.42;90.86;98743.66;4972393;28;20038;-87
2022/11/10 05:06:17;;;;;;;8.63;4.65;;;;;;;9.39;90.74;98746.63;4971334;28;20117;-86
2022/11/10 05:08:44;;;;;;;7.82;4.95;;;;;;;9.35;90.57;98754.00;4972904;28;20034;-87
2022/11/10 05:11:11;;;;;;;6.13;4.50;;;;;;;9.33;90.90;98758.59;4971980;28;20098;-86
2022/11/10 05:13:36;;;;;;;6.82;4.38;;;;;;;9.32;90.95;98767.47;4972146;28;20607;-87
2022/11/10 05:16:03;;;;;;;8.68;5.00;;;;;;;9.31;90.83;98775.50;4986634;28;20062;-87
2022/11/10 05:18:28;;;;;;;7.35;4.07;;;;;;;9.25;90.87;98776.19;4971827;28;20097;-87
2022/11/10 05:20:54;;;;;;;6.28;4.50;;;;;;;9.22;91.05;98769.47;4972322;28;20054;-87
2022/11/10 05:23:38;;;;;;;6.03;4.25;;;;;;;9.22;90.83;98768.66;4972397;28;20479;-87
2022/11/10 05:26:10;;;;;;;6.78;4.03;;;;;;;9.17;90.39;98777.03;4971470;28;20122;-87
2022/11/10 05:28:36;;;;;;;8.02;4.68;;;;;;;9.14;91.11;98780.03;4971552;28;20085;-87
2022/11/10 05:31:02;;;;;;;5.80;4.80;;;;;;;9.12;91.41;98771.53;4971758;28;20047;-86
2022/11/10 05:33:28;;;;;;;6.50;4.38;;;;;;;9.10;91.65;98786.56;4971953;28;20460;-87
2022/11/10 05:35:53;;;;;;;7.05;4.97;;;;;;;9.05;92.24;98784.47;4972308;28;20041;-87
2022/11/10 05:38:19;;;;;;;8.45;5.40;;;;;;;9.07;92.16;98784.31;4971872;28;20474;-87
2022/11/10 05:40:44;;;;;;;9.30;4.88;;;;;;;9.09;91.47;98784.94;4971965;28;20048;-87
2022/11/10 05:43:10;;;;;;;6.68;4.57;;;;;;;9.09;91.25;98792.81;4972440;28;20066;-87
2022/11/10 05:45:36;;;;;;;7.00;4.97;;;;;;;9.05;90.88;98794.13;4972018;28;20043;-86
2022/11/10 05:48:01;;;;;;;8.57;4.90;;;;;;;9.04;90.67;98806.41;4972081;28;20045;-87
2022/11/10 05:50:27;;;;;;;7.55;4.70;;;;;;;8.98;90.17;98801.03;4971287;28;20053;-87
2022/11/10 05:52:54;;;;;;;6.72;4.65;;;;;;;8.94;90.07;98810.25;4969466;28;20035;-87
2022/11/10 05:55:27;;;;;;;7.55;4.32;;;;;;;8.92;90.24;98822.66;4971504;28;20050;-87
2022/11/10 05:57:54;;;;;;;6.97;4.40;;;;;;;8.93;90.07;98837.38;4971484;28;20047;-87
2022/11/10 06:00:24;;;;;;;7.05;4.25;;;;;;;8.92;90.62;98822.66;4970836;28;20041;-87
2022/11/10 06:03:13;;;;;;;5.57;4.55;;;;;;;8.90;90.17;98825.44;4971434;28;20059;-87
2022/11/10 06:05:38;;;;;;;5.82;4.43;;;;;;;8.87;90.37;98838.03;4970268;28;20035;-87
2022/11/10 06:08:05;;;;;;;5.55;4.40;;;;;;;8.81;89.87;98837.72;4970565;28;20090;-86
2022/11/10 06:10:33;;;;;;;6.32;4.32;;;;;;;8.80;89.82;98837.91;4971687;28;20046;-86
2022/11/10 06:12:59;;;;;;;6.50;4.32;;;;;;;8.81;90.16;98848.19;4971427;28;20081;-87
2022/11/10 06:15:25;;;;;;;7.65;4.80;;;;;;;8.79;89.82;98852.78;4970567;28;20026;-87
2022/11/10 06:17:52;;;;;;;7.30;4.32;;;;;;;8.79;89.74;98860.63;4970842;28;20037;-87
2022/11/10 06:20:18;;;;;;;8.25;4.07;;;;;;;8.75;89.40;98872.41;4970908;28;20407;-86
2022/11/10 06:22:57;;;;;;;5.97;4.45;;;;;;;8.79;89.70;98875.53;4975892;28;20023;-86
2022/11/10 06:25:23;;;;;;;4.95;4.28;;;;;;;8.69;89.23;98880.94;4969897;28;20046;-86
2022/11/10 06:27:48;;;;;;;6.00;4.70;;;;;;;8.74;89.82;98885.66;4970885;28;20046;-86
2022/11/10 06:30:14;;;;;;;6.75;4.40;;;;;;;8.73;89.74;98890.09;4970465;28;20523;-86
2022/11/10 06:32:43;;;;;;;11.45;4.85;;;;;;;8.71;89.56;98886.84;4970822;28;20042;-86
2022/11/10 06:35:10;;;;;;;9.73;4.63;;;;;;;8.74;89.47;98904.78;4970700;28;20601;-86
2022/11/10 06:37:37;;;;;;;6.32;4.68;;;;;;;8.73;89.89;98908.41;4970974;28;20041;-86
2022/11/10 06:40:06;;;;;;;8.23;4.68;;;;;;;8.69;89.50;98901.03;4969639;28;20031;-87
2022/11/10 06:42:32;;;;;;;8.00;4.35;;;;;;;8.72;89.49;98919.03;4969541;28;20035;-87
2022/11/10 06:44:58;;;;;;;6.60;4.70;;;;;;;8.74;89.20;98936.19;4970804;28;20035;-87
2022/11/10 06:47:23;;;;;;;11.52;5.07;;;;;;;8.77;89.42;98941.09;4970281;28;20089;-87
2022/11/10 06:49:49;;;;;;;8.18;5.43;;;;;;;8.76;89.71;98936.03;4970590;28;20037;-87
2022/11/10 06:52:14;;;;;;;7.75;4.72;;;;;;;8.76;89.69;98936.03;4971152;28;20045;-87
2022/11/10 06:54:40;;;;;;;7.10;4.63;;;;;;;8.81;89.52;98947.59;4969565;28;20597;-87
2022/11/10 06:57:05;;;;;;;9.90;5.18;;;;;;;8.86;89.44;98949.72;4970482;28;20031;-87
2022/11/10 06:59:31;;;;;;;7.60;5.22;;;;;;;8.95;89.28;98958.38;4970774;28;20104;-87
2022/11/10 07:01:56;;;;;;;7.53;4.93;;;;;;;9.00;88.96;98964.75;4969991;28;20069;-87
2022/11/10 07:04:22;;;;;;;7.97;5.00;;;;;;;9.05;88.46;98964.22;4968695;28;20173;-87
2022/11/10 07:06:47;;;;;;;6.88;4.57;;;;;;;9.08;88.36;98963.88;4967152;28;20109;-87
2022/11/10 07:09:14;;;;;;;8.85;4.75;;;;;;;9.11;88.04;98966.97;4970273;28;20035;-87
2022/11/10 07:11:39;;;;;;;8.38;4.97;;;;;;;9.13;88.53;98972.06;4970511;28;20041;-87
2022/11/10 07:14:05;;;;;;;7.90;5.18;;;;;;;9.18;88.41;98977.59;4970175;28;20039;-87
2022/11/10 07:16:30;;;;;;;7.50;4.95;;;;;;;9.15;87.71;98974.50;4970260;28;20121;-87
2022/11/10 07:18:56;;;;;;;6.85;4.72;;;;;;;9.23;87.89;98982.31;4969876;28;20045;-85
2022/11/10 07:21:21;;;;;;;8.57;5.05;;;;;;;9.32;87.92;98976.88;4970426;28;20041;-87
2022/11/10 07:23:47;;;;;;;8.27;5.10;;;;;;;9.37;87.32;98984.25;4967238;28;20494;-86
2022/11/10 07:26:12;;;;;;;10.30;4.70;;;;;;;9.50;87.12;98994.97;4968765;28;20050;-87
2022/11/10 07:28:38;;;;;;;10.10;5.35;;;;;;;9.54;86.40;98992.84;4970010;28;20454;-87
2022/11/10 07:31:03;;;;;;;9.40;5.03;;;;;;;9.63;85.68;99003.09;4971458;28;20387;-87
2022/11/10 07:33:29;;;;;;;7.80;5.00;;;;;;;9.61;86.63;99006.88;4970098;28;20475;-87
2022/11/10 07:36:04;;;;;;;7.30;5.22;;;;;;;9.63;85.99;99007.50;4970015;28;20416;-87
2022/11/10 07:38:30;;;;;;;7.80;5.35;;;;;;;9.65;85.96;99002.91;4969850;28;20753;-87
2022/11/10 07:40:55;;;;;;;8.38;5.65;;;;;;;9.75;86.12;99007.94;4970212;28;20038;-87
2022/11/10 07:43:24;;;;;;;9.05;5.50;;;;;;;9.88;86.33;99014.25;4969468;28;20031;-88
2022/11/10 07:45:50;;;;;;;6.65;5.40;;;;;;;9.96;84.97;99020.47;4969498;28;20110;-88
2022/11/10 07:48:16;;;;;;;10.68;5.90;;;;;;;10.12;85.64;99033.44;4969932;28;20041;-87
2022/11/10 07:50:43;;;;;;;9.30;5.63;;;;;;;10.13;85.08;99016.72;4969268;28;20530;-87
2022/11/10 07:53:15;;;;;;;9.00;5.50;;;;;;;10.39;84.33;99048.72;4966688;28;20062;-88
2022/11/10 07:55:44;;;;;;;11.13;5.60;;;;;;;10.53;84.06;99043.69;4970018;28;20426;-87
2022/11/10 07:58:12;;;;;;;10.80;5.60;;;;;;;10.59;83.87;99043.78;4969593;28;20039;-87
2022/11/10 08:00:39;;;;;;;7.97;5.82;;;;;;;10.70;84.02;99060.94;4969875;28;20038;-87
2022/11/10 08:03:11;;;;;;;8.77;5.40;;;;;;;10.76;83.51;99065.47;4969892;28;20041;-87
2022/11/10 08:05:38;;;;;;;8.10;6.45;;;;;;;10.94;83.62;99060.72;4983862;28;20039;-87
2022/11/10 08:08:04;;;;;;;11.55;6.32;;;;;;;11.00;83.27;99059.19;4966004;28;20041;-86
2022/11/10 08:10:32;;;;;;;7.93;5.65;;;;;;;11.07;82.99;99075.84;4970241;28;20097;-87
2022/11/10 08:13:00;;;;;;;9.40;5.78;;;;;;;11.20;83.52;99083.91;4969975;28;20038;-87
2022/11/10 08:15:28;;;;;;;11.25;6.32;;;;;;;11.23;83.07;99075.69;4968945;28;20030;-87
2022/11/10 08:18:20;;;;;;;11.25;5.43;;;;;;;11.36;81.75;99092.66;4968677;28;20479;-87
2022/11/10 08:20:46;;;;;;;11.57;5.53;;;;;;;11.51;81.39;99102.16;4967394;28;20535;-86
2022/11/10 08:23:12;;;;;;;7.50;5.32;;;;;;;11.65;80.68;99112.84;4970634;28;20146;-87
2022/11/10 08:25:38;;;;;;;9.98;5.50;;;;;;;11.64;80.05;99116.50;4970887;28;20113;-87
2022/11/10 08:28:14;;;;;;;7.47;5.47;;;;;;;11.52;81.41;99114.31;4970172;28;20026;-87
2022/11/10 08:30:43;;;;;;;8.43;5.40;;;;;;;11.47;82.17;99121.91;4968680;28;20066;-87
2022/11/10 08:33:12;;;;;;;8.73;6.05;;;;;;;11.45;82.91;99113.38;4973693;28;20516;-87
2022/11/10 08:35:42;;;;;;;8.25;5.80;;;;;;;11.44;82.98;99116.19;4973472;28;20050;-87
2022/11/10 08:38:11;;;;;;;8.25;5.15;;;;;;;11.43;83.36;99125.88;4972896;28;20067;-87
2022/11/10 08:40:38;;;;;;;7.07;5.68;;;;;;;11.36;82.44;99119.72;4973397;28;20070;-87
2022/11/10 08:43:07;;;;;;;7.63;5.55;;;;;;;11.38;83.64;99122.97;4973175;28;20027;-87
2022/11/10 08:45:39;;;;;;;9.45;5.82;;;;;;;11.39;83.74;99129.03;4973575;28;20031;-87
2022/11/10 08:48:15;;;;;;;8.57;5.85;;;;;;;11.33;83.29;99127.94;4973488;28;20126;-85
2022/11/10 08:50:42;;;;;;;8.70;5.57;;;;;;;11.17;83.22;99128.13;4976229;28;20491;-86
2022/11/10 08:53:14;;;;;;;8.07;5.90;;;;;;;11.18;83.85;99127.94;4972828;28;20034;-83
2022/11/10 08:55:41;;;;;;;9.10;5.78;;;;;;;11.03;83.23;99127.06;4972016;28;20074;-83
2022/11/10 08:58:12;;;;;;;10.88;6.10;;;;;;;10.98;83.97;99130.25;4971850;28;20042;-83
2022/11/10 09:00:38;;;;;;;8.30;5.70;;;;;;;10.92;84.02;99132.75;4970478;28;20053;-83
2022/11/10 09:03:07;;;;;;;8.45;6.32;;;;;;;10.89;84.90;99139.16;4971482;28;20035;-84
2022/11/10 09:05:34;;;;;;;9.48;5.82;;;;;;;10.84;84.79;99144.13;4970567;28;20042;-83
2022/11/10 09:08:01;;;;;;;9.52;6.60;;;;;;;10.84;85.63;99144.13;4970600;28;20113;-83
2022/11/10 09:10:27;;;;;;;8.77;6.28;;;;;;;10.85;85.55;99153.63;4970764;28;20027;-83
2022/11/10 09:12:52;;;;;;;9.77;6.05;;;;;;;10.92;86.50;99159.81;4970536;28;20042;-83
2022/11/10 09:15:18;;;;;;;11.38;6.78;;;;;;;11.02;86.49;99156.94;4986677;28;20483;-83
2022/11/10 09:17:44;;;;;;;9.95;6.43;;;;;;;11.16;86.15;99165.88;4977403;28;20413;-83
2022/11/10 09:20:13;;;;;;;9.18;7.20;;;;;;;11.42;86.41;99178.59;4971329;28;20487;-83
2022/11/10 09:22:38;;;;;;;11.32;7.28;;;;;;;11.73;85.71;99188.97;4971465;28;20038;-83
2022/11/10 09:25:05;;;;;;;11.13;6.78;;;;;;;11.89;84.59;99188.84;4971646;28;20105;-83
2022/11/10 09:27:36;;;;;;;10.98;7.30;;;;;;;11.99;84.55;99191.97;4971261;28;20110;-84
2022/11/10 09:30:04;;;;;;;10.63;6.93;;;;;;;12.09;84.36;99199.59;4971511;28;20137;-83
2022/11/10 09:32:31;;;;;;;12.13;6.85;;;;;;;12.08;82.04;99207.69;4970990;28;20042;-83
2022/11/10 09:34:57;;;;;;;10.15;6.68;;;;;;;12.17;83.36;99212.66;4969808;28;20428;-84
2022/11/10 09:37:22;;;;;;;8.27;6.47;;;;;;;12.34;83.51;99226.44;4971435;28;20042;-83
2022/11/10 09:39:48;;;;;;;11.43;7.30;;;;;;;12.43;82.54;99216.63;4971003;28;20038;-83
2022/11/10 09:42:35;;;;;;;9.73;6.78;;;;;;;12.41;81.33;99224.69;4970611;28;20088;-84
2022/11/10 09:45:41;;;;;;;12.05;6.60;;;;;;;12.50;82.98;99228.88;4968688;28;20399;-84
2022/11/10 09:48:22;;;;;;;11.57;6.88;;;;;;;12.55;82.04;99237.03;4968578;28;20041;-83
2022/11/10 09:50:57;;;;;;;9.70;6.50;;;;;;;12.78;80.53;99234.25;4968940;28;21555;-83
2022/11/10 09:53:49;;;;;;;11.00;7.28;;;;;;;12.82;80.80;99237.31;4966400;28;20597;-83
2022/11/10 09:56:38;;;;;;;11.73;6.95;;;;;;;12.55;79.65;99237.03;4957112;28;20062;-84
2022/11/10 09:59:25;;;;;;;10.90;6.20;;;;;;;12.42;78.53;99236.06;4969635;28;20086;-83
2022/11/10 10:02:08;;;;;;;8.45;7.03;;;;;;;12.28;79.50;99245.56;4968056;28;20062;-83
2022/11/10 10:05:25;;;;;;;11.77;7.13;;;;;;;12.25;80.74;99240.69;4969228;28;20039;-84
2022/11/10 10:08:10;;;;;;;13.18;7.63;;;;;;;12.65;84.51;99241.16;4984477;28;20093;-84
2022/11/10 10:10:49;;;;;;;15.55;7.07;;;;;;;12.75;83.08;99242.50;4966296;28;20034;-84
2022/11/10 10:13:26;;;;;;;11.60;7.03;;;;;;;12.88;80.67;99239.22;4968853;28;20114;-84
2022/11/10 10:16:27;;;;;;;8.02;5.80;;;;;;;12.80;79.22;99234.06;4969219;28;20121;-84
2022/11/10 10:19:26;;;;;;;9.80;6.43;;;;;;;12.75;78.93;99236.44;4968670;28;20027;-83
2022/11/10 10:22:19;;;;;;;8.93;5.55;;;;;;;12.62;77.94;99246.81;4968926;28;20026;-83
2022/11/10 10:24:47;;;;;;;6.95;4.40;;;;;;;12.43;78.19;99246.41;4968697;28;20045;-84
2022/11/10 10:27:24;;;;;;;12.93;4.70;;;;;;;12.19;77.06;99242.25;4969331;28;20109;-83
2022/11/10 10:29:51;;;;;;;8.73;4.20;;;;;;;12.33;77.59;99259.00;4970030;28;20839;-84
2022/11/10 10:32:19;;;;;;;7.60;3.80;;;;;;;12.27;77.45;99249.22;4969138;28;20040;-84
2022/11/10 10:34:46;;;;;;;8.82;4.00;;;;;;;12.29;77.11;99247.19;4969594;28;20041;-83
2022/11/10 10:37:27;;;;;;;6.72;3.95;;;;;;;12.41;76.31;99256.25;4969982;28;20121;-83
2022/11/10 10:39:54;;;;;;;;;;;;;;;12.46;76.20;99242.56;4970058;28;20030;-83
2022/11/10 10:42:31;;;;;;;7.65;3.90;;;;;;;12.47;74.59;99242.38;4970176;28;19913;-84
2022/11/10 10:45:27;;;;;;;5.55;3.78;;;;;;;12.51;75.39;99237.56;4968037;28;20039;-85
2022/11/10 10:47:56;;;;;;;7.32;3.63;;;;;;;12.61;73.84;99234.66;4968822;28;20483;-83
2022/11/10 10:50:33;;;;;;;8.10;3.33;;;;;;;12.58;74.94;99235.84;4969985;28;20138;-83
2022/11/10 10:53:18;;;;;;;8.70;3.95;;;;;;;12.80;74.01;99234.06;4966984;28;20565;-89
2022/11/10 10:56:13;;;;;;;4.68;3.40;;;;;;;12.82;73.48;99237.31;4967971;28;20027;-87
2022/11/10 10:58:57;;;;;;;6.32;3.33;;;;;;;12.80;73.96;99240.16;4969917;28;20644;-87
2022/11/10 11:01:27;;;;;;;9.75;3.55;;;;;;;12.75;72.11;99236.44;4969975;28;20035;-88
2022/11/10 11:03:53;;;;;;;4.75;3.25;;;;;;;12.73;73.26;99227.91;4970484;28;20637;-87
2022/11/10 11:06:24;;;;;;;8.95;3.53;;;;;;;12.83;74.49;99233.69;4970581;28;20125;-87
2022/11/10 11:09:22;;;;;;;8.60;3.20;;;;;;;12.99;74.10;99241.34;4969912;28;20535;-85
2022/11/10 11:12:06;;;;;;;8.88;3.25;;;;;;;12.78;73.03;99231.63;4968754;28;20048;-87
2022/11/10 11:14:32;;;;;;;6.88;3.65;;;;;;;13.16;73.84;99249.84;4969533;28;20073;-86
2022/11/10 11:17:20;;;;;;;6.30;3.17;;;;;;;13.14;73.25;99230.78;4969460;28;20038;-87
2022/11/10 11:19:50;;;;;;;9.68;3.47;;;;;;;13.18;71.33;99231.19;4970770;28;20092;-87
2022/11/10 11:22:32;;;;;;;7.13;3.35;;;;;;;12.98;70.53;99231.00;4970086;28;20042;-88
2022/11/10 11:25:27;;;;;;;7.05;3.33;;;;;;;12.88;71.62;99230.50;4968536;28;20754;-87
2022/11/10 11:28:18;;;;;;;4.93;3.30;;;;;;;12.86;72.26;99228.88;4970560;28;20042;-87
2022/11/10 11:30:52;;;;;;;7.60;3.10;;;;;;;12.88;73.44;99231.31;4970300;28;20051;-87
2022/11/10 11:33:33;;;;;;;6.13;3.30;;;;;;;12.94;74.10;99230.56;4968982;28;20118;-86
2022/11/10 11:36:38;;;;;;;6.43;3.30;;;;;;;13.13;71.29;99229.97;4969635;28;20034;-88
2022/11/10 11:39:31;;;;;;;8.40;3.33;;;;;;;13.37;70.21;99241.13;4967986;28;20038;-87
2022/11/10 11:42:45;;;;;;;7.00;3.17;;;;;;;13.50;70.46;99228.09;4968166;28;20054;-87
2022/11/10 11:45:24;;;;;;;3.42;2.80;;;;;;;13.56;71.62;99226.50;4964132;28;20066;-87
2022/11/10 11:48:25;;;;;;;6.80;3.10;;;;;;;13.44;70.43;99246.47;4968989;28;20117;-87
2022/11/10 11:50:59;;;;;;;;;;;;;;;13.21;69.80;99236.94;4970729;28;20035;-87
2022/11/10 11:53:53;;;;;;;4.93;2.95;;;;;;;13.09;71.29;99249.78;4967384;28;19918;-86
2022/11/10 11:56:30;;;;;;;6.53;3.00;;;;;;;12.90;70.91;99244.31;4968923;28;20521;-87
2022/11/10 11:59:54;;;;;;;8.23;3.67;;;;;;;13.00;72.64;99231.63;4969244;28;20035;-87
2022/11/10 12:02:52;;;;;;;7.68;3.20;;;;;;;12.91;70.27;99230.94;4968440;28;20482;-87